Sudbury Airport
CYSB : rendu visible

Aérodrome :











RETROUVEZ-NOUS SUR...

 
LOGIN :

S'inscrire | Disclaimer

   EN    FR    IT 

 









Légende :    VFR   VFR Marginal   IFR   IFR Intensif   IFR Très Intensif
Visi : 
Plafond : 
>= 8 km
>= 3000ft
5 à 8 km
1000 à 3000 ft
1500m à 5 km
500 à 1000 ft
800 à 1500m
200 à 500 ft
< 800m
< 200 ft
Symboles :   Orages  Brouillard  Fortes neiges  Fortes précipitations  Vent > 20 kt






- Altitude de l'aérodrome : 1141 ft
- Code IATA : YSB


CYSB - Sudbury

DERNIER METAR :
  • 241400Z 25006KT 210V280 15SM SKC M02/M03 A2978 RMK SLP104

METARs EXPIRÉS :
  • 241300Z 22005KT 15SM SKC M04/M04 A2976 RMK SLP099
  • 241200Z 20003KT 15SM SKC M04/M04 A2973 RMK SLP087

TAF TAF CYSB
Valide du 24 à 14h jusqu'au 25 à 02h UTC


241339Z 2414/2502 22006KT P6SM SKC
FM241500 25010KT P6SM SCT025
TEMPO 2415/2418 BKN020
FM241800 27012KT P6SM BKN025
TEMPO 2418/2502 BKN020
BECMG 2420/2422 33008KT RMK NXT FCST BY 242000Z



MET'MAP, la Météo Aéronautique d'un coup d'oeil ! - Copyright ORBIFLY Décembre 2007 - Disclaimer

ORBIFLY MET'MAP TEAM :

Programmation & Développement : Alexandra Zaïnal
Sur une idée originale de : Baudouin d'Aumeries
Assistance à la programmation : Marc-Olivier Méhu
Soutien technique & logistique : Manuel Goepfert

Contact : metmap@orbifly.com




SOURCES & CREDITS :

   NOAA       Earth
Advisory